sensor_id;sensor_type;location;lat;lon;timestamp;P1;durP1;ratioP1;P2;durP2;ratioP2
7160;SDS011;3622;53.576;9.978;2023-01-16T00:01:09;5.00;;;4.57;;
7160;SDS011;3622;53.576;9.978;2023-01-16T00:03:36;5.03;;;4.53;;
7160;SDS011;3622;53.576;9.978;2023-01-16T00:06:02;4.63;;;4.17;;
7160;SDS011;3622;53.576;9.978;2023-01-16T00:08:28;6.20;;;5.13;;
7160;SDS011;3622;53.576;9.978;2023-01-16T00:10:54;6.73;;;5.17;;
7160;SDS011;3622;53.576;9.978;2023-01-16T00:13:20;6.33;;;4.70;;
7160;SDS011;3622;53.576;9.978;2023-01-16T00:15:47;7.57;;;6.30;;
7160;SDS011;3622;53.576;9.978;2023-01-16T00:18:13;12.83;;;5.80;;
7160;SDS011;3622;53.576;9.978;2023-01-16T00:20:39;5.53;;;4.77;;
7160;SDS011;3622;53.576;9.978;2023-01-16T00:23:05;12.63;;;6.57;;
7160;SDS011;3622;53.576;9.978;2023-01-16T00:25:31;12.60;;;6.33;;
7160;SDS011;3622;53.576;9.978;2023-01-16T00:27:58;20.63;;;9.40;;
7160;SDS011;3622;53.576;9.978;2023-01-16T00:30:23;11.37;;;5.57;;
7160;SDS011;3622;53.576;9.978;2023-01-16T00:32:49;5.40;;;4.87;;
7160;SDS011;3622;53.576;9.978;2023-01-16T00:35:16;12.70;;;8.73;;
7160;SDS011;3622;53.576;9.978;2023-01-16T00:37:41;5.90;;;4.50;;
7160;SDS011;3622;53.576;9.978;2023-01-16T00:40:08;10.27;;;6.63;;
7160;SDS011;3622;53.576;9.978;2023-01-16T00:42:34;6.23;;;5.43;;
7160;SDS011;3622;53.576;9.978;2023-01-16T00:45:00;7.40;;;5.70;;
7160;SDS011;3622;53.576;9.978;2023-01-16T00:47:26;13.63;;;4.80;;
7160;SDS011;3622;53.576;9.978;2023-01-16T00:49:52;8.13;;;4.50;;
7160;SDS011;3622;53.576;9.978;2023-01-16T00:52:18;7.37;;;4.40;;
7160;SDS011;3622;53.576;9.978;2023-01-16T00:54:44;7.90;;;4.27;;
7160;SDS011;3622;53.576;9.978;2023-01-16T00:57:10;4.73;;;3.80;;
7160;SDS011;3622;53.576;9.978;2023-01-16T00:59:36;6.87;;;4.17;;
7160;SDS011;3622;53.576;9.978;2023-01-16T01:02:02;6.50;;;4.70;;
7160;SDS011;3622;53.576;9.978;2023-01-16T01:04:28;7.17;;;4.83;;
7160;SDS011;3622;53.576;9.978;2023-01-16T01:06:55;3.50;;;3.00;;
7160;SDS011;3622;53.576;9.978;2023-01-16T01:09:21;3.30;;;3.00;;
7160;SDS011;3622;53.576;9.978;2023-01-16T01:11:47;4.10;;;3.80;;
7160;SDS011;3622;53.576;9.978;2023-01-16T01:14:13;3.70;;;3.40;;
7160;SDS011;3622;53.576;9.978;2023-01-16T01:16:39;3.90;;;3.60;;
7160;SDS011;3622;53.576;9.978;2023-01-16T01:19:05;11.03;;;5.70;;
7160;SDS011;3622;53.576;9.978;2023-01-16T01:21:31;9.60;;;6.10;;
7160;SDS011;3622;53.576;9.978;2023-01-16T01:23:57;9.13;;;5.57;;
7160;SDS011;3622;53.576;9.978;2023-01-16T01:26:23;11.90;;;7.50;;
7160;SDS011;3622;53.576;9.978;2023-01-16T01:28:49;10.77;;;5.13;;
7160;SDS011;3622;53.576;9.978;2023-01-16T01:31:15;8.40;;;5.03;;
7160;SDS011;3622;53.576;9.978;2023-01-16T01:33:41;4.47;;;4.17;;
7160;SDS011;3622;53.576;9.978;2023-01-16T01:36:07;8.90;;;6.20;;
7160;SDS011;3622;53.576;9.978;2023-01-16T01:38:33;5.43;;;4.30;;
7160;SDS011;3622;53.576;9.978;2023-01-16T01:40:59;4.87;;;4.40;;
7160;SDS011;3622;53.576;9.978;2023-01-16T01:46:26;6.60;;;4.00;;
7160;SDS011;3622;53.576;9.978;2023-01-16T01:48:54;7.63;;;4.30;;
7160;SDS011;3622;53.576;9.978;2023-01-16T01:51:29;3.73;;;3.43;;
7160;SDS011;3622;53.576;9.978;2023-01-16T01:53:58;4.10;;;3.20;;
7160;SDS011;3622;53.576;9.978;2023-01-16T01:56:27;5.00;;;3.30;;
7160;SDS011;3622;53.576;9.978;2023-01-16T01:58:55;2.70;;;2.43;;
7160;SDS011;3622;53.576;9.978;2023-01-16T02:01:22;2.87;;;2.67;;
7160;SDS011;3622;53.576;9.978;2023-01-16T02:03:50;4.23;;;2.30;;
7160;SDS011;3622;53.576;9.978;2023-01-16T02:06:18;9.13;;;2.43;;
7160;SDS011;3622;53.576;9.978;2023-01-16T02:08:45;4.00;;;2.80;;
7160;SDS011;3622;53.576;9.978;2023-01-16T02:11:16;3.20;;;2.70;;
7160;SDS011;3622;53.576;9.978;2023-01-16T02:13:52;3.23;;;2.60;;
7160;SDS011;3622;53.576;9.978;2023-01-16T02:16:18;3.13;;;2.50;;
7160;SDS011;3622;53.576;9.978;2023-01-16T02:19:03;2.23;;;1.93;;
7160;SDS011;3622;53.576;9.978;2023-01-16T02:24:27;2.50;;;2.30;;
7160;SDS011;3622;53.576;9.978;2023-01-16T02:29:40;6.60;;;3.13;;
7160;SDS011;3622;53.576;9.978;2023-01-16T02:32:15;5.43;;;3.30;;
7160;SDS011;3622;53.576;9.978;2023-01-16T02:37:24;6.50;;;2.40;;
7160;SDS011;3622;53.576;9.978;2023-01-16T02:49:47;2.97;;;2.07;;
7160;SDS011;3622;53.576;9.978;2023-01-16T02:52:32;3.20;;;2.13;;
7160;SDS011;3622;53.576;9.978;2023-01-16T02:55:00;2.43;;;2.27;;
7160;SDS011;3622;53.576;9.978;2023-01-16T02:57:51;1.70;;;1.60;;
7160;SDS011;3622;53.576;9.978;2023-01-16T03:00:15;3.13;;;2.70;;
7160;SDS011;3622;53.576;9.978;2023-01-16T03:02:42;3.00;;;2.30;;
7160;SDS011;3622;53.576;9.978;2023-01-16T03:05:08;3.10;;;1.77;;
7160;SDS011;3622;53.576;9.978;2023-01-16T03:15:12;6.53;;;3.93;;
7160;SDS011;3622;53.576;9.978;2023-01-16T03:20:39;1.97;;;1.87;;
7160;SDS011;3622;53.576;9.978;2023-01-16T03:23:22;4.47;;;2.37;;
7160;SDS011;3622;53.576;9.978;2023-01-16T03:25:52;3.73;;;3.00;;
7160;SDS011;3622;53.576;9.978;2023-01-16T03:30:57;4.13;;;2.67;;
7160;SDS011;3622;53.576;9.978;2023-01-16T03:33:32;2.10;;;1.90;;
7160;SDS011;3622;53.576;9.978;2023-01-16T03:38:24;3.87;;;2.83;;
7160;SDS011;3622;53.576;9.978;2023-01-16T03:40:53;2.73;;;1.67;;
7160;SDS011;3622;53.576;9.978;2023-01-16T03:43:25;2.00;;;1.53;;
7160;SDS011;3622;53.576;9.978;2023-01-16T03:45:55;4.80;;;2.70;;
7160;SDS011;3622;53.576;9.978;2023-01-16T03:50:53;2.13;;;1.90;;
7160;SDS011;3622;53.576;9.978;2023-01-16T03:53:21;3.23;;;1.37;;
7160;SDS011;3622;53.576;9.978;2023-01-16T03:58:18;1.87;;;1.57;;
7160;SDS011;3622;53.576;9.978;2023-01-16T04:00:47;2.70;;;2.20;;
7160;SDS011;3622;53.576;9.978;2023-01-16T04:03:15;4.17;;;2.77;;
7160;SDS011;3622;53.576;9.978;2023-01-16T04:05:47;5.50;;;1.73;;
7160;SDS011;3622;53.576;9.978;2023-01-16T04:08:16;3.13;;;2.10;;
7160;SDS011;3622;53.576;9.978;2023-01-16T04:10:43;3.53;;;1.67;;
7160;SDS011;3622;53.576;9.978;2023-01-16T04:13:11;2.30;;;1.30;;
7160;SDS011;3622;53.576;9.978;2023-01-16T04:15:41;1.70;;;1.60;;
7160;SDS011;3622;53.576;9.978;2023-01-16T04:18:07;2.60;;;1.33;;
7160;SDS011;3622;53.576;9.978;2023-01-16T04:20:33;4.03;;;1.83;;
7160;SDS011;3622;53.576;9.978;2023-01-16T04:23:00;2.03;;;1.63;;
7160;SDS011;3622;53.576;9.978;2023-01-16T04:25:26;2.07;;;1.50;;
7160;SDS011;3622;53.576;9.978;2023-01-16T04:27:52;2.47;;;1.43;;
7160;SDS011;3622;53.576;9.978;2023-01-16T04:30:18;1.97;;;1.70;;
7160;SDS011;3622;53.576;9.978;2023-01-16T04:32:44;2.50;;;2.10;;
7160;SDS011;3622;53.576;9.978;2023-01-16T04:35:10;8.50;;;4.70;;
7160;SDS011;3622;53.576;9.978;2023-01-16T04:37:36;7.00;;;2.43;;
7160;SDS011;3622;53.576;9.978;2023-01-16T04:40:05;3.73;;;1.40;;
7160;SDS011;3622;53.576;9.978;2023-01-16T04:42:33;1.40;;;1.30;;
7160;SDS011;3622;53.576;9.978;2023-01-16T04:44:59;1.93;;;1.80;;
7160;SDS011;3622;53.576;9.978;2023-01-16T04:47:25;2.30;;;1.57;;
7160;SDS011;3622;53.576;9.978;2023-01-16T04:49:51;4.20;;;1.47;;
7160;SDS011;3622;53.576;9.978;2023-01-16T04:52:17;3.20;;;1.60;;
7160;SDS011;3622;53.576;9.978;2023-01-16T04:54:43;1.43;;;1.20;;
7160;SDS011;3622;53.576;9.978;2023-01-16T04:57:09;2.63;;;1.40;;
7160;SDS011;3622;53.576;9.978;2023-01-16T04:59:35;3.83;;;1.70;;
7160;SDS011;3622;53.576;9.978;2023-01-16T05:02:01;1.93;;;1.37;;
7160;SDS011;3622;53.576;9.978;2023-01-16T05:04:27;2.50;;;1.60;;
7160;SDS011;3622;53.576;9.978;2023-01-16T05:06:53;1.43;;;1.33;;
7160;SDS011;3622;53.576;9.978;2023-01-16T05:09:19;3.23;;;1.20;;
7160;SDS011;3622;53.576;9.978;2023-01-16T05:11:45;1.40;;;1.30;;
7160;SDS011;3622;53.576;9.978;2023-01-16T05:14:11;1.93;;;1.20;;
7160;SDS011;3622;53.576;9.978;2023-01-16T05:16:38;1.80;;;1.10;;
7160;SDS011;3622;53.576;9.978;2023-01-16T05:19:06;2.30;;;1.43;;
7160;SDS011;3622;53.576;9.978;2023-01-16T05:21:32;3.40;;;1.43;;
7160;SDS011;3622;53.576;9.978;2023-01-16T05:23:58;1.87;;;1.10;;
7160;SDS011;3622;53.576;9.978;2023-01-16T05:26:24;7.67;;;1.43;;
7160;SDS011;3622;53.576;9.978;2023-01-16T05:28:50;2.53;;;0.93;;
7160;SDS011;3622;53.576;9.978;2023-01-16T05:31:16;1.93;;;1.47;;
7160;SDS011;3622;53.576;9.978;2023-01-16T05:33:42;3.40;;;1.10;;
7160;SDS011;3622;53.576;9.978;2023-01-16T05:36:08;4.30;;;1.10;;
7160;SDS011;3622;53.576;9.978;2023-01-16T05:38:34;1.60;;;1.20;;
7160;SDS011;3622;53.576;9.978;2023-01-16T05:41:00;3.53;;;1.30;;
7160;SDS011;3622;53.576;9.978;2023-01-16T05:43:26;1.50;;;0.80;;
7160;SDS011;3622;53.576;9.978;2023-01-16T05:45:52;1.70;;;1.30;;
7160;SDS011;3622;53.576;9.978;2023-01-16T05:48:18;2.20;;;1.20;;
7160;SDS011;3622;53.576;9.978;2023-01-16T05:50:44;3.90;;;1.70;;
7160;SDS011;3622;53.576;9.978;2023-01-16T05:53:10;3.10;;;0.90;;
7160;SDS011;3622;53.576;9.978;2023-01-16T05:55:43;4.90;;;1.10;;
7160;SDS011;3622;53.576;9.978;2023-01-16T05:58:10;1.97;;;1.10;;
7160;SDS011;3622;53.576;9.978;2023-01-16T06:00:37;3.27;;;1.00;;
7160;SDS011;3622;53.576;9.978;2023-01-16T06:03:03;1.67;;;1.30;;
7160;SDS011;3622;53.576;9.978;2023-01-16T06:05:29;3.13;;;1.17;;
7160;SDS011;3622;53.576;9.978;2023-01-16T06:07:55;8.73;;;1.13;;
7160;SDS011;3622;53.576;9.978;2023-01-16T06:10:22;1.10;;;1.00;;
7160;SDS011;3622;53.576;9.978;2023-01-16T06:12:48;2.00;;;1.17;;
7160;SDS011;3622;53.576;9.978;2023-01-16T06:15:14;4.60;;;0.93;;
7160;SDS011;3622;53.576;9.978;2023-01-16T06:17:40;1.50;;;0.93;;
7160;SDS011;3622;53.576;9.978;2023-01-16T06:20:06;1.30;;;0.90;;
7160;SDS011;3622;53.576;9.978;2023-01-16T06:22:32;1.43;;;1.03;;
7160;SDS011;3622;53.576;9.978;2023-01-16T06:24:58;3.10;;;0.87;;
7160;SDS011;3622;53.576;9.978;2023-01-16T06:27:24;3.30;;;1.00;;
7160;SDS011;3622;53.576;9.978;2023-01-16T06:29:50;2.37;;;0.80;;
7160;SDS011;3622;53.576;9.978;2023-01-16T06:32:16;1.20;;;0.90;;
7160;SDS011;3622;53.576;9.978;2023-01-16T06:34:43;1.10;;;0.80;;
7160;SDS011;3622;53.576;9.978;2023-01-16T06:37:09;2.47;;;0.73;;
7160;SDS011;3622;53.576;9.978;2023-01-16T06:39:35;3.47;;;1.40;;
7160;SDS011;3622;53.576;9.978;2023-01-16T06:42:01;2.10;;;1.10;;
7160;SDS011;3622;53.576;9.978;2023-01-16T06:44:29;3.33;;;0.90;;
7160;SDS011;3622;53.576;9.978;2023-01-16T06:46:55;6.40;;;1.60;;
7160;SDS011;3622;53.576;9.978;2023-01-16T06:49:22;2.10;;;0.93;;
7160;SDS011;3622;53.576;9.978;2023-01-16T06:51:48;1.53;;;1.00;;
7160;SDS011;3622;53.576;9.978;2023-01-16T06:54:14;3.70;;;1.00;;
7160;SDS011;3622;53.576;9.978;2023-01-16T06:56:40;2.40;;;1.23;;
7160;SDS011;3622;53.576;9.978;2023-01-16T06:59:05;1.40;;;1.07;;
7160;SDS011;3622;53.576;9.978;2023-01-16T07:01:31;2.87;;;1.40;;
7160;SDS011;3622;53.576;9.978;2023-01-16T07:03:58;3.90;;;1.20;;
7160;SDS011;3622;53.576;9.978;2023-01-16T07:06:24;2.67;;;1.27;;
7160;SDS011;3622;53.576;9.978;2023-01-16T07:08:50;3.43;;;1.10;;
7160;SDS011;3622;53.576;9.978;2023-01-16T07:11:17;2.70;;;1.07;;
7160;SDS011;3622;53.576;9.978;2023-01-16T07:13:43;3.40;;;1.23;;
7160;SDS011;3622;53.576;9.978;2023-01-16T07:16:13;1.83;;;1.30;;
7160;SDS011;3622;53.576;9.978;2023-01-16T07:18:57;4.30;;;1.37;;
7160;SDS011;3622;53.576;9.978;2023-01-16T07:21:43;3.57;;;1.90;;
7160;SDS011;3622;53.576;9.978;2023-01-16T07:24:29;2.90;;;1.23;;
7160;SDS011;3622;53.576;9.978;2023-01-16T07:26:58;2.23;;;1.30;;
7160;SDS011;3622;53.576;9.978;2023-01-16T07:29:26;2.43;;;0.97;;
7160;SDS011;3622;53.576;9.978;2023-01-16T07:31:53;1.73;;;1.40;;
7160;SDS011;3622;53.576;9.978;2023-01-16T07:34:19;1.83;;;1.37;;
7160;SDS011;3622;53.576;9.978;2023-01-16T07:36:47;1.20;;;0.80;;
7160;SDS011;3622;53.576;9.978;2023-01-16T07:39:13;1.17;;;0.93;;
7160;SDS011;3622;53.576;9.978;2023-01-16T07:41:39;3.47;;;1.30;;
7160;SDS011;3622;53.576;9.978;2023-01-16T07:44:05;4.60;;;2.07;;
7160;SDS011;3622;53.576;9.978;2023-01-16T07:46:31;1.40;;;0.97;;
7160;SDS011;3622;53.576;9.978;2023-01-16T07:48:57;9.47;;;1.30;;
7160;SDS011;3622;53.576;9.978;2023-01-16T07:51:23;2.30;;;1.17;;
7160;SDS011;3622;53.576;9.978;2023-01-16T07:53:49;3.30;;;1.17;;
7160;SDS011;3622;53.576;9.978;2023-01-16T07:56:15;3.63;;;1.33;;
7160;SDS011;3622;53.576;9.978;2023-01-16T07:58:41;1.20;;;0.90;;
7160;SDS011;3622;53.576;9.978;2023-01-16T08:01:08;6.70;;;1.20;;
7160;SDS011;3622;53.576;9.978;2023-01-16T08:03:34;1.77;;;1.07;;
7160;SDS011;3622;53.576;9.978;2023-01-16T08:06:01;1.73;;;0.97;;
7160;SDS011;3622;53.576;9.978;2023-01-16T08:08:27;4.43;;;1.30;;
7160;SDS011;3622;53.576;9.978;2023-01-16T08:10:57;2.30;;;1.63;;
7160;SDS011;3622;53.576;9.978;2023-01-16T08:13:23;1.90;;;1.03;;
7160;SDS011;3622;53.576;9.978;2023-01-16T08:15:49;1.50;;;0.93;;
7160;SDS011;3622;53.576;9.978;2023-01-16T08:18:15;2.10;;;0.70;;
7160;SDS011;3622;53.576;9.978;2023-01-16T08:20:42;2.30;;;1.03;;
7160;SDS011;3622;53.576;9.978;2023-01-16T08:23:09;1.33;;;1.23;;
7160;SDS011;3622;53.576;9.978;2023-01-16T08:25:36;6.93;;;1.17;;
7160;SDS011;3622;53.576;9.978;2023-01-16T08:28:02;2.40;;;1.10;;
7160;SDS011;3622;53.576;9.978;2023-01-16T08:30:28;1.50;;;1.17;;
7160;SDS011;3622;53.576;9.978;2023-01-16T08:32:57;1.87;;;0.80;;
7160;SDS011;3622;53.576;9.978;2023-01-16T08:35:24;1.00;;;0.80;;
7160;SDS011;3622;53.576;9.978;2023-01-16T08:37:50;1.73;;;1.07;;
7160;SDS011;3622;53.576;9.978;2023-01-16T08:40:16;1.33;;;1.20;;
7160;SDS011;3622;53.576;9.978;2023-01-16T08:42:42;1.67;;;0.90;;
7160;SDS011;3622;53.576;9.978;2023-01-16T08:45:26;3.20;;;1.20;;
7160;SDS011;3622;53.576;9.978;2023-01-16T08:48:11;3.10;;;1.00;;
7160;SDS011;3622;53.576;9.978;2023-01-16T08:51:00;2.13;;;1.07;;
7160;SDS011;3622;53.576;9.978;2023-01-16T08:53:45;1.03;;;0.93;;
7160;SDS011;3622;53.576;9.978;2023-01-16T08:56:10;9.10;;;1.70;;
7160;SDS011;3622;53.576;9.978;2023-01-16T08:58:36;1.67;;;1.00;;
7160;SDS011;3622;53.576;9.978;2023-01-16T09:01:02;3.50;;;1.17;;
7160;SDS011;3622;53.576;9.978;2023-01-16T09:03:28;3.80;;;2.57;;
7160;SDS011;3622;53.576;9.978;2023-01-16T09:05:54;1.23;;;1.13;;
7160;SDS011;3622;53.576;9.978;2023-01-16T09:08:20;3.43;;;1.60;;
7160;SDS011;3622;53.576;9.978;2023-01-16T09:10:46;1.50;;;0.90;;
7160;SDS011;3622;53.576;9.978;2023-01-16T09:13:31;1.63;;;0.77;;
7160;SDS011;3622;53.576;9.978;2023-01-16T09:16:19;1.60;;;1.10;;
7160;SDS011;3622;53.576;9.978;2023-01-16T09:18:46;1.00;;;0.83;;
7160;SDS011;3622;53.576;9.978;2023-01-16T09:21:12;2.17;;;0.90;;
7160;SDS011;3622;53.576;9.978;2023-01-16T09:23:38;2.53;;;0.90;;
7160;SDS011;3622;53.576;9.978;2023-01-16T09:26:04;2.27;;;1.10;;
7160;SDS011;3622;53.576;9.978;2023-01-16T09:28:30;2.40;;;1.20;;
7160;SDS011;3622;53.576;9.978;2023-01-16T09:30:56;5.27;;;1.47;;
7160;SDS011;3622;53.576;9.978;2023-01-16T09:33:22;4.07;;;1.33;;
7160;SDS011;3622;53.576;9.978;2023-01-16T09:35:48;2.67;;;1.27;;
7160;SDS011;3622;53.576;9.978;2023-01-16T09:38:14;2.70;;;1.30;;
7160;SDS011;3622;53.576;9.978;2023-01-16T09:40:43;1.10;;;1.00;;
7160;SDS011;3622;53.576;9.978;2023-01-16T09:45:58;1.63;;;1.53;;
7160;SDS011;3622;53.576;9.978;2023-01-16T09:48:32;1.47;;;1.37;;
7160;SDS011;3622;53.576;9.978;2023-01-16T09:51:01;1.60;;;1.50;;
7160;SDS011;3622;53.576;9.978;2023-01-16T09:53:32;2.60;;;1.10;;
7160;SDS011;3622;53.576;9.978;2023-01-16T09:56:18;1.57;;;1.20;;
7160;SDS011;3622;53.576;9.978;2023-01-16T10:01:35;1.40;;;1.10;;
7160;SDS011;3622;53.576;9.978;2023-01-16T10:04:21;1.77;;;1.20;;
7160;SDS011;3622;53.576;9.978;2023-01-16T10:09:29;1.43;;;1.33;;
7160;SDS011;3622;53.576;9.978;2023-01-16T10:12:00;2.50;;;1.50;;
7160;SDS011;3622;53.576;9.978;2023-01-16T10:29:59;1.97;;;1.50;;
7160;SDS011;3622;53.576;9.978;2023-01-16T10:32:28;1.57;;;1.47;;
7160;SDS011;3622;53.576;9.978;2023-01-16T10:37:21;1.50;;;1.40;;
7160;SDS011;3622;53.576;9.978;2023-01-16T10:39:47;1.80;;;1.17;;
7160;SDS011;3622;53.576;9.978;2023-01-16T10:42:15;3.57;;;1.80;;
7160;SDS011;3622;53.576;9.978;2023-01-16T10:47:50;3.90;;;2.30;;
7160;SDS011;3622;53.576;9.978;2023-01-16T10:50:35;1.77;;;1.67;;
7160;SDS011;3622;53.576;9.978;2023-01-16T10:53:02;1.83;;;1.73;;
7160;SDS011;3622;53.576;9.978;2023-01-16T10:55:28;1.90;;;1.57;;
7160;SDS011;3622;53.576;9.978;2023-01-16T10:57:55;1.40;;;1.27;;
7160;SDS011;3622;53.576;9.978;2023-01-16T11:00:32;2.73;;;1.30;;
7160;SDS011;3622;53.576;9.978;2023-01-16T11:03:10;2.30;;;1.20;;
7160;SDS011;3622;53.576;9.978;2023-01-16T11:05:38;3.27;;;1.10;;
7160;SDS011;3622;53.576;9.978;2023-01-16T11:08:10;2.63;;;1.07;;
7160;SDS011;3622;53.576;9.978;2023-01-16T11:10:36;1.60;;;1.27;;
7160;SDS011;3622;53.576;9.978;2023-01-16T11:13:03;2.30;;;1.30;;
7160;SDS011;3622;53.576;9.978;2023-01-16T11:18:51;1.50;;;1.33;;
7160;SDS011;3622;53.576;9.978;2023-01-16T11:23:47;1.33;;;1.10;;
7160;SDS011;3622;53.576;9.978;2023-01-16T11:26:14;1.57;;;1.47;;
7160;SDS011;3622;53.576;9.978;2023-01-16T11:28:42;1.83;;;1.73;;
7160;SDS011;3622;53.576;9.978;2023-01-16T11:31:12;1.57;;;1.47;;
7160;SDS011;3622;53.576;9.978;2023-01-16T11:33:40;3.90;;;2.20;;
7160;SDS011;3622;53.576;9.978;2023-01-16T11:36:08;2.77;;;1.70;;
7160;SDS011;3622;53.576;9.978;2023-01-16T11:38:35;3.83;;;1.60;;
7160;SDS011;3622;53.576;9.978;2023-01-16T11:41:03;2.07;;;1.30;;
7160;SDS011;3622;53.576;9.978;2023-01-16T11:43:31;4.93;;;1.77;;
7160;SDS011;3622;53.576;9.978;2023-01-16T11:46:30;3.60;;;3.30;;
7160;SDS011;3622;53.576;9.978;2023-01-16T11:49:04;2.20;;;1.20;;
7160;SDS011;3622;53.576;9.978;2023-01-16T11:51:31;3.00;;;2.10;;
7160;SDS011;3622;53.576;9.978;2023-01-16T11:53:57;2.10;;;1.90;;
7160;SDS011;3622;53.576;9.978;2023-01-16T12:04:22;2.90;;;1.47;;
7160;SDS011;3622;53.576;9.978;2023-01-16T12:09:43;1.43;;;1.03;;
7160;SDS011;3622;53.576;9.978;2023-01-16T12:15:20;1.33;;;1.10;;
7160;SDS011;3622;53.576;9.978;2023-01-16T12:17:55;4.03;;;1.20;;
7160;SDS011;3622;53.576;9.978;2023-01-16T12:27:46;1.20;;;1.10;;
7160;SDS011;3622;53.576;9.978;2023-01-16T12:30:19;2.83;;;1.47;;
7160;SDS011;3622;53.576;9.978;2023-01-16T12:35:15;1.20;;;0.90;;
7160;SDS011;3622;53.576;9.978;2023-01-16T12:40:18;1.43;;;1.00;;
7160;SDS011;3622;53.576;9.978;2023-01-16T12:42:55;1.23;;;1.10;;
7160;SDS011;3622;53.576;9.978;2023-01-16T12:58:42;1.80;;;1.10;;
7160;SDS011;3622;53.576;9.978;2023-01-16T13:03:46;1.50;;;1.13;;
7160;SDS011;3622;53.576;9.978;2023-01-16T13:06:17;1.93;;;1.00;;
7160;SDS011;3622;53.576;9.978;2023-01-16T13:08:49;1.90;;;1.27;;
7160;SDS011;3622;53.576;9.978;2023-01-16T13:11:26;1.33;;;1.23;;
7160;SDS011;3622;53.576;9.978;2023-01-16T13:14:12;1.73;;;1.10;;
7160;SDS011;3622;53.576;9.978;2023-01-16T13:16:59;5.87;;;1.70;;
7160;SDS011;3622;53.576;9.978;2023-01-16T13:19:27;2.20;;;1.00;;
7160;SDS011;3622;53.576;9.978;2023-01-16T13:24:39;1.53;;;1.40;;
7160;SDS011;3622;53.576;9.978;2023-01-16T13:27:11;1.90;;;1.23;;
7160;SDS011;3622;53.576;9.978;2023-01-16T13:29:41;3.17;;;1.10;;
7160;SDS011;3622;53.576;9.978;2023-01-16T13:34:39;2.87;;;2.40;;
7160;SDS011;3622;53.576;9.978;2023-01-16T13:37:22;1.90;;;1.30;;
7160;SDS011;3622;53.576;9.978;2023-01-16T13:42:37;1.63;;;1.30;;
7160;SDS011;3622;53.576;9.978;2023-01-16T13:45:15;2.63;;;1.20;;
7160;SDS011;3622;53.576;9.978;2023-01-16T13:48:11;2.97;;;1.43;;
7160;SDS011;3622;53.576;9.978;2023-01-16T13:50:37;1.23;;;1.13;;
7160;SDS011;3622;53.576;9.978;2023-01-16T13:53:04;1.90;;;1.20;;
7160;SDS011;3622;53.576;9.978;2023-01-16T13:55:33;2.73;;;1.13;;
7160;SDS011;3622;53.576;9.978;2023-01-16T14:00:35;2.50;;;1.03;;
7160;SDS011;3622;53.576;9.978;2023-01-16T14:03:14;2.23;;;0.87;;
7160;SDS011;3622;53.576;9.978;2023-01-16T14:05:42;3.10;;;1.70;;
7160;SDS011;3622;53.576;9.978;2023-01-16T14:11:04;1.70;;;1.47;;
7160;SDS011;3622;53.576;9.978;2023-01-16T14:13:31;2.50;;;1.33;;
7160;SDS011;3622;53.576;9.978;2023-01-16T14:16:01;2.07;;;1.30;;
7160;SDS011;3622;53.576;9.978;2023-01-16T14:21:23;2.17;;;1.20;;
7160;SDS011;3622;53.576;9.978;2023-01-16T14:23:53;3.33;;;1.13;;
7160;SDS011;3622;53.576;9.978;2023-01-16T14:26:39;2.70;;;1.00;;
7160;SDS011;3622;53.576;9.978;2023-01-16T14:29:20;2.13;;;1.30;;
7160;SDS011;3622;53.576;9.978;2023-01-16T14:32:23;1.90;;;1.43;;
7160;SDS011;3622;53.576;9.978;2023-01-16T14:34:40;10.13;;;1.13;;
7160;SDS011;3622;53.576;9.978;2023-01-16T14:37:15;3.33;;;1.53;;
7160;SDS011;3622;53.576;9.978;2023-01-16T14:39:49;3.20;;;1.27;;
7160;SDS011;3622;53.576;9.978;2023-01-16T14:42:25;5.67;;;2.50;;
7160;SDS011;3622;53.576;9.978;2023-01-16T14:47:56;1.57;;;1.13;;
7160;SDS011;3622;53.576;9.978;2023-01-16T14:50:44;1.50;;;1.40;;
7160;SDS011;3622;53.576;9.978;2023-01-16T14:53:35;1.10;;;1.00;;
7160;SDS011;3622;53.576;9.978;2023-01-16T14:56:29;1.53;;;0.90;;
7160;SDS011;3622;53.576;9.978;2023-01-16T14:58:58;1.30;;;1.17;;
7160;SDS011;3622;53.576;9.978;2023-01-16T15:01:49;1.57;;;1.23;;
7160;SDS011;3622;53.576;9.978;2023-01-16T15:04:43;4.57;;;1.10;;
7160;SDS011;3622;53.576;9.978;2023-01-16T15:07:11;2.10;;;1.23;;
7160;SDS011;3622;53.576;9.978;2023-01-16T15:09:40;2.50;;;0.90;;
7160;SDS011;3622;53.576;9.978;2023-01-16T15:12:13;3.33;;;1.10;;
7160;SDS011;3622;53.576;9.978;2023-01-16T15:14:50;2.93;;;1.13;;
7160;SDS011;3622;53.576;9.978;2023-01-16T15:22:50;1.57;;;1.00;;
7160;SDS011;3622;53.576;9.978;2023-01-16T15:27:42;2.73;;;1.20;;
7160;SDS011;3622;53.576;9.978;2023-01-16T15:30:13;0.97;;;0.90;;
7160;SDS011;3622;53.576;9.978;2023-01-16T15:32:52;4.40;;;1.03;;
7160;SDS011;3622;53.576;9.978;2023-01-16T15:35:20;1.23;;;1.13;;
7160;SDS011;3622;53.576;9.978;2023-01-16T15:37:53;3.73;;;1.30;;
7160;SDS011;3622;53.576;9.978;2023-01-16T15:40:27;3.57;;;1.30;;
7160;SDS011;3622;53.576;9.978;2023-01-16T15:42:54;1.30;;;1.20;;
7160;SDS011;3622;53.576;9.978;2023-01-16T15:48:49;2.80;;;1.50;;
7160;SDS011;3622;53.576;9.978;2023-01-16T15:51:18;2.10;;;1.90;;
7160;SDS011;3622;53.576;9.978;2023-01-16T15:53:46;3.70;;;1.03;;
7160;SDS011;3622;53.576;9.978;2023-01-16T15:56:18;1.40;;;1.10;;
7160;SDS011;3622;53.576;9.978;2023-01-16T15:58:44;6.60;;;1.70;;
7160;SDS011;3622;53.576;9.978;2023-01-16T16:01:12;3.73;;;1.10;;
7160;SDS011;3622;53.576;9.978;2023-01-16T16:03:40;2.70;;;1.53;;
7160;SDS011;3622;53.576;9.978;2023-01-16T16:06:08;0.87;;;0.83;;
7160;SDS011;3622;53.576;9.978;2023-01-16T16:08:35;2.10;;;1.70;;
7160;SDS011;3622;53.576;9.978;2023-01-16T16:11:03;1.73;;;0.93;;
7160;SDS011;3622;53.576;9.978;2023-01-16T16:13:48;1.30;;;1.20;;
7160;SDS011;3622;53.576;9.978;2023-01-16T16:16:15;6.03;;;2.80;;
7160;SDS011;3622;53.576;9.978;2023-01-16T16:19:00;1.73;;;1.13;;
7160;SDS011;3622;53.576;9.978;2023-01-16T16:21:28;2.80;;;1.23;;
7160;SDS011;3622;53.576;9.978;2023-01-16T16:24:02;1.33;;;1.23;;
7160;SDS011;3622;53.576;9.978;2023-01-16T16:26:29;1.30;;;1.13;;
7160;SDS011;3622;53.576;9.978;2023-01-16T16:28:59;1.53;;;1.43;;
7160;SDS011;3622;53.576;9.978;2023-01-16T16:31:29;1.67;;;1.57;;
7160;SDS011;3622;53.576;9.978;2023-01-16T16:34:00;2.50;;;1.10;;
7160;SDS011;3622;53.576;9.978;2023-01-16T16:36:28;1.47;;;1.33;;
7160;SDS011;3622;53.576;9.978;2023-01-16T16:38:55;1.47;;;1.23;;
7160;SDS011;3622;53.576;9.978;2023-01-16T16:44:21;1.57;;;1.27;;
7160;SDS011;3622;53.576;9.978;2023-01-16T16:46:48;2.80;;;1.30;;
7160;SDS011;3622;53.576;9.978;2023-01-16T16:51:40;2.63;;;1.47;;
7160;SDS011;3622;53.576;9.978;2023-01-16T16:54:10;1.60;;;1.40;;
7160;SDS011;3622;53.576;9.978;2023-01-16T16:56:44;1.10;;;1.00;;
7160;SDS011;3622;53.576;9.978;2023-01-16T16:59:15;4.87;;;1.20;;
7160;SDS011;3622;53.576;9.978;2023-01-16T17:01:41;1.70;;;1.07;;
7160;SDS011;3622;53.576;9.978;2023-01-16T17:04:10;1.90;;;1.30;;
7160;SDS011;3622;53.576;9.978;2023-01-16T17:06:41;4.77;;;1.47;;
7160;SDS011;3622;53.576;9.978;2023-01-16T17:09:09;2.20;;;1.50;;
7160;SDS011;3622;53.576;9.978;2023-01-16T17:11:36;1.00;;;0.77;;
7160;SDS011;3622;53.576;9.978;2023-01-16T17:14:01;1.60;;;1.50;;
7160;SDS011;3622;53.576;9.978;2023-01-16T17:16:28;1.87;;;1.30;;
7160;SDS011;3622;53.576;9.978;2023-01-16T17:18:57;5.60;;;1.30;;
7160;SDS011;3622;53.576;9.978;2023-01-16T17:21:24;2.80;;;1.17;;
7160;SDS011;3622;53.576;9.978;2023-01-16T17:23:50;2.13;;;1.10;;
7160;SDS011;3622;53.576;9.978;2023-01-16T17:26:16;1.40;;;1.30;;
7160;SDS011;3622;53.576;9.978;2023-01-16T17:28:42;1.43;;;1.33;;
7160;SDS011;3622;53.576;9.978;2023-01-16T17:31:10;1.70;;;1.27;;
7160;SDS011;3622;53.576;9.978;2023-01-16T17:33:37;2.47;;;2.27;;
7160;SDS011;3622;53.576;9.978;2023-01-16T17:36:03;1.47;;;1.20;;
7160;SDS011;3622;53.576;9.978;2023-01-16T17:38:39;5.53;;;3.37;;
7160;SDS011;3622;53.576;9.978;2023-01-16T17:41:07;2.13;;;1.90;;
7160;SDS011;3622;53.576;9.978;2023-01-16T17:43:37;2.40;;;2.20;;
7160;SDS011;3622;53.576;9.978;2023-01-16T17:46:22;3.17;;;1.30;;
7160;SDS011;3622;53.576;9.978;2023-01-16T17:48:49;4.33;;;2.13;;
7160;SDS011;3622;53.576;9.978;2023-01-16T17:51:15;1.77;;;1.67;;
7160;SDS011;3622;53.576;9.978;2023-01-16T17:53:46;1.40;;;1.30;;
7160;SDS011;3622;53.576;9.978;2023-01-16T17:56:12;2.33;;;1.90;;
7160;SDS011;3622;53.576;9.978;2023-01-16T17:58:39;2.30;;;1.57;;
7160;SDS011;3622;53.576;9.978;2023-01-16T18:01:12;2.53;;;1.47;;
7160;SDS011;3622;53.576;9.978;2023-01-16T18:03:38;6.13;;;2.33;;